Time;durP1;ratioP1;P1;durP2;ratioP2;P2;SDS_P1;SDS_P2;PMS_P1;PMS_P2;Temp;Humidity;BMP_temperature;BMP_pressure;BME280_temperature;BME280_humidity;BME280_pressure;Samples;Min_cycle;Max_cycle;Signal;HPM_P1;HPM_P2
2021/09/06 00:00:49;;;;;;;6.47;4.28;;;;;;;;;;770748;179;926291;-72
2021/09/06 00:03:14;;;;;;;5.70;3.50;;;;;;;;;;765336;180;1020803;-72
2021/09/06 00:05:40;;;;;;;8.53;4.70;;;;;;;;;;768673;180;918715;-72
2021/09/06 00:08:06;;;;;;;6.63;4.47;;;;;;;;;;767005;180;919148;-72
2021/09/06 00:10:33;;;;;;;6.77;4.00;;;;;;;;;;764010;183;916287;-72
2021/09/06 00:12:59;;;;;;;6.30;4.30;;;;;;;;;;769903;180;920013;-72
2021/09/06 00:15:25;;;;;;;7.83;4.20;;;;;;;;;;765085;180;946708;-72
2021/09/06 00:17:51;;;;;;;8.23;5.17;;;;;;;;;;767886;180;915597;-71
2021/09/06 00:20:17;;;;;;;13.43;5.73;;;;;;;;;;767984;180;916941;-72
2021/09/06 00:22:43;;;;;;;9.00;5.60;;;;;;;;;;764087;180;916871;-72
2021/09/06 00:25:09;;;;;;;8.60;5.30;;;;;;;;;;770145;179;918704;-73
2021/09/06 00:27:35;;;;;;;8.20;5.70;;;;;;;;;;768027;180;914834;-71
2021/09/06 00:30:00;;;;;;;8.32;4.95;;;;;;;;;;767281;180;917111;-71
2021/09/06 00:32:26;;;;;;;11.50;5.20;;;;;;;;;;766248;180;917230;-72
2021/09/06 00:34:53;;;;;;;10.60;6.20;;;;;;;;;;762622;183;915239;-71
2021/09/06 00:37:19;;;;;;;11.20;6.03;;;;;;;;;;770262;180;917174;-71
2021/09/06 00:39:45;;;;;;;6.43;4.47;;;;;;;;;;765123;180;916010;-72
2021/09/06 00:42:11;;;;;;;8.47;4.70;;;;;;;;;;769135;180;912213;-71
2021/09/06 00:44:36;;;;;;;5.93;3.60;;;;;;;;;;764947;180;916253;-70
2021/09/06 00:47:03;;;;;;;9.98;4.55;;;;;;;;;;764314;180;917136;-70
2021/09/06 00:49:28;;;;;;;7.18;4.90;;;;;;;;;;770141;180;915060;-70
2021/09/06 00:51:54;;;;;;;9.50;4.90;;;;;;;;;;766368;180;919580;-70
2021/09/06 00:54:20;;;;;;;8.27;4.70;;;;;;;;;;767580;180;919885;-69
2021/09/06 00:56:46;;;;;;;9.60;5.00;;;;;;;;;;766932;180;918670;-70
2021/09/06 00:59:12;;;;;;;8.47;5.30;;;;;;;;;;763619;183;919562;-69
2021/09/06 01:01:38;;;;;;;12.18;4.85;;;;;;;;;;772553;178;921361;-69
2021/09/06 01:04:03;;;;;;;11.17;5.57;;;;;;;;;;767088;180;919510;-69
2021/09/06 01:06:29;;;;;;;8.83;4.90;;;;;;;;;;773247;180;924804;-72
2021/09/06 01:08:55;;;;;;;6.20;3.80;;;;;;;;;;764510;180;919077;-69
2021/09/06 01:11:21;;;;;;;5.30;3.43;;;;;;;;;;768214;180;1224855;-70
2021/09/06 01:13:47;;;;;;;6.20;4.10;;;;;;;;;;770290;181;923913;-69
2021/09/06 01:16:13;;;;;;;11.40;4.20;;;;;;;;;;767442;180;918779;-70
2021/09/06 01:18:38;;;;;;;6.90;4.03;;;;;;;;;;768345;180;918660;-69
2021/09/06 01:21:04;;;;;;;7.20;4.50;;;;;;;;;;771676;180;918292;-69
2021/09/06 01:23:30;;;;;;;8.57;4.00;;;;;;;;;;767589;180;919678;-69
2021/09/06 01:25:56;;;;;;;8.07;4.80;;;;;;;;;;765678;180;918992;-69
2021/09/06 01:28:22;;;;;;;11.60;5.00;;;;;;;;;;765717;180;919153;-69
2021/09/06 01:30:48;;;;;;;10.33;5.47;;;;;;;;;;771929;180;920043;-69
2021/09/06 01:33:13;;;;;;;7.73;5.03;;;;;;;;;;762979;180;919824;-69
2021/09/06 01:35:39;;;;;;;10.00;6.13;;;;;;;;;;764833;180;918911;-70
2021/09/06 01:38:05;;;;;;;6.82;4.93;;;;;;;;;;773969;180;919396;-69
2021/09/06 01:40:31;;;;;;;8.77;5.43;;;;;;;;;;766290;180;918698;-69
2021/09/06 01:42:57;;;;;;;10.70;5.17;;;;;;;;;;767911;180;918979;-69
2021/09/06 01:45:23;;;;;;;8.00;3.80;;;;;;;;;;771545;180;917855;-69
2021/09/06 01:47:49;;;;;;;8.07;4.33;;;;;;;;;;765802;180;1124324;-68
2021/09/06 01:50:14;;;;;;;6.50;4.07;;;;;;;;;;763706;180;919104;-69
2021/09/06 01:52:40;;;;;;;7.83;4.27;;;;;;;;;;764922;180;917827;-68
2021/09/06 01:55:06;;;;;;;8.30;4.60;;;;;;;;;;764233;182;917573;-69
2021/09/06 01:57:32;;;;;;;6.97;3.70;;;;;;;;;;769753;180;918685;-68
2021/09/06 01:59:58;;;;;;;10.83;4.63;;;;;;;;;;766026;180;919245;-68
2021/09/06 02:02:24;;;;;;;7.40;3.80;;;;;;;;;;771674;180;918736;-69
2021/09/06 02:04:50;;;;;;;6.63;4.40;;;;;;;;;;767480;180;917870;-68
2021/09/06 02:07:15;;;;;;;9.00;4.55;;;;;;;;;;767504;180;919001;-68
2021/09/06 02:09:41;;;;;;;25.93;5.60;;;;;;;;;;772368;180;919526;-67
2021/09/06 02:12:07;;;;;;;8.30;3.73;;;;;;;;;;764689;180;919601;-68
2021/09/06 02:14:33;;;;;;;6.53;3.35;;;;;;;;;;767999;178;917679;-67
2021/09/06 02:16:59;;;;;;;5.00;3.25;;;;;;;;;;772289;180;918889;-66
2021/09/06 02:19:25;;;;;;;6.77;4.10;;;;;;;;;;766264;183;918690;-68
2021/09/06 02:21:51;;;;;;;7.20;3.83;;;;;;;;;;769911;180;919236;-67
2021/09/06 02:24:17;;;;;;;6.20;4.10;;;;;;;;;;766291;180;919016;-67
2021/09/06 02:26:43;;;;;;;6.57;3.87;;;;;;;;;;770113;180;920623;-67
2021/09/06 02:29:09;;;;;;;9.90;5.57;;;;;;;;;;769076;180;944668;-66
2021/09/06 02:31:34;;;;;;;7.80;4.20;;;;;;;;;;770396;180;815875;-67
2021/09/06 02:34:00;;;;;;;5.57;3.77;;;;;;;;;;769814;180;920159;-67
2021/09/06 02:36:26;;;;;;;9.80;4.50;;;;;;;;;;765647;180;918406;-67
2021/09/06 02:38:52;;;;;;;6.40;4.30;;;;;;;;;;767468;180;918816;-68
2021/09/06 02:41:18;;;;;;;12.93;4.37;;;;;;;;;;772694;180;918800;-67
2021/09/06 02:43:44;;;;;;;11.30;4.60;;;;;;;;;;769332;180;917663;-67
2021/09/06 02:46:09;;;;;;;6.07;4.10;;;;;;;;;;765016;181;918756;-67
2021/09/06 02:48:35;;;;;;;13.95;4.25;;;;;;;;;;766975;180;919189;-66
2021/09/06 02:51:01;;;;;;;7.23;4.00;;;;;;;;;;772065;180;919545;-67
2021/09/06 02:53:27;;;;;;;7.87;4.47;;;;;;;;;;763278;181;1098709;-67
2021/09/06 02:55:53;;;;;;;7.47;4.30;;;;;;;;;;769854;180;918989;-67
2021/09/06 02:58:19;;;;;;;6.20;3.67;;;;;;;;;;766219;182;918837;-66
2021/09/06 03:00:44;;;;;;;6.87;4.30;;;;;;;;;;765442;180;920254;-67
2021/09/06 03:03:10;;;;;;;7.00;4.60;;;;;;;;;;766347;180;918849;-67
2021/09/06 03:05:36;;;;;;;8.13;4.40;;;;;;;;;;772811;180;917281;-68
2021/09/06 03:08:02;;;;;;;7.47;4.43;;;;;;;;;;765928;180;919780;-67
2021/09/06 03:10:28;;;;;;;7.13;4.00;;;;;;;;;;765952;181;918490;-66
2021/09/06 03:12:54;;;;;;;8.30;4.80;;;;;;;;;;769022;180;918274;-66
2021/09/06 03:15:19;;;;;;;7.40;4.90;;;;;;;;;;764798;183;916030;-68
2021/09/06 03:17:45;;;;;;;7.83;4.50;;;;;;;;;;764760;180;917319;-67
2021/09/06 03:20:11;;;;;;;12.25;5.05;;;;;;;;;;764798;180;917718;-68
2021/09/06 03:22:38;;;;;;;9.23;5.47;;;;;;;;;;768625;182;916965;-68
2021/09/06 03:25:04;;;;;;;6.00;4.43;;;;;;;;;;766149;179;918913;-67
2021/09/06 03:27:30;;;;;;;9.57;4.70;;;;;;;;;;766479;179;931115;-68
2021/09/06 03:29:57;;;;;;;8.57;4.90;;;;;;;;;;772047;180;916737;-70
2021/09/06 03:32:23;;;;;;;9.37;5.23;;;;;;;;;;768341;180;917789;-67
2021/09/06 03:34:49;;;;;;;7.70;5.80;;;;;;;;;;765602;180;918433;-69
2021/09/06 03:37:15;;;;;;;9.33;5.17;;;;;;;;;;768685;180;918723;-67
2021/09/06 03:39:40;;;;;;;9.20;5.57;;;;;;;;;;764243;182;918571;-67
2021/09/06 03:42:06;;;;;;;11.02;6.25;;;;;;;;;;768476;180;919107;-67
2021/09/06 03:44:32;;;;;;;10.03;5.97;;;;;;;;;;762977;180;918359;-66
2021/09/06 03:46:58;;;;;;;11.80;6.53;;;;;;;;;;771751;180;919097;-68
2021/09/06 03:49:24;;;;;;;9.37;5.70;;;;;;;;;;764353;180;918858;-67
2021/09/06 03:51:50;;;;;;;10.20;5.30;;;;;;;;;;765501;180;918444;-67
2021/09/06 03:54:15;;;;;;;8.10;5.17;;;;;;;;;;774076;180;920890;-67
2021/09/06 03:56:41;;;;;;;8.33;5.57;;;;;;;;;;768403;180;918276;-67
2021/09/06 03:59:07;;;;;;;10.90;5.82;;;;;;;;;;769807;180;919315;-67
2021/09/06 04:01:33;;;;;;;8.35;5.80;;;;;;;;;;771829;179;921658;-66
2021/09/06 04:03:59;;;;;;;9.03;5.70;;;;;;;;;;762588;182;921746;-69
2021/09/06 04:06:25;;;;;;;9.73;5.80;;;;;;;;;;770778;180;920446;-67
2021/09/06 04:08:51;;;;;;;11.37;6.20;;;;;;;;;;767371;180;817397;-66
2021/09/06 04:11:17;;;;;;;10.97;7.27;;;;;;;;;;773224;180;915646;-67
2021/09/06 04:13:44;;;;;;;7.73;5.67;;;;;;;;;;762303;180;920545;-67
2021/09/06 04:16:09;;;;;;;10.97;6.90;;;;;;;;;;764232;181;814179;-67
2021/09/06 04:18:34;;;;;;;17.27;7.30;;;;;;;;;;772492;180;915431;-67
2021/09/06 04:21:00;;;;;;;15.10;8.33;;;;;;;;;;765954;180;915967;-67
2021/09/06 04:23:26;;;;;;;18.23;8.27;;;;;;;;;;767644;180;914718;-67
2021/09/06 04:25:52;;;;;;;11.60;6.73;;;;;;;;;;773350;180;918793;-67
2021/09/06 04:28:18;;;;;;;13.97;7.13;;;;;;;;;;764547;180;918782;-67
2021/09/06 04:30:43;;;;;;;19.50;8.30;;;;;;;;;;763533;180;921839;-67
2021/09/06 04:33:09;;;;;;;23.07;9.40;;;;;;;;;;763519;180;919665;-66
2021/09/06 04:35:35;;;;;;;14.00;7.77;;;;;;;;;;772963;178;920321;-68
2021/09/06 04:38:01;;;;;;;13.77;7.20;;;;;;;;;;767769;179;918478;-67
2021/09/06 04:40:28;;;;;;;16.83;8.80;;;;;;;;;;767268;180;918953;-67
2021/09/06 04:42:53;;;;;;;16.10;8.80;;;;;;;;;;776194;180;919678;-67
2021/09/06 04:45:18;;;;;;;16.57;9.70;;;;;;;;;;770357;180;924989;-68
2021/09/06 04:47:44;;;;;;;29.85;10.70;;;;;;;;;;770042;180;919406;-68
2021/09/06 04:50:10;;;;;;;30.97;10.73;;;;;;;;;;769303;180;918722;-68
2021/09/06 04:52:36;;;;;;;30.07;11.17;;;;;;;;;;763993;180;914821;-67
2021/09/06 04:55:02;;;;;;;34.30;12.23;;;;;;;;;;766976;180;915349;-67
2021/09/06 04:57:28;;;;;;;38.40;13.13;;;;;;;;;;767066;180;915270;-67
2021/09/06 04:59:54;;;;;;;42.97;13.00;;;;;;;;;;766068;181;914674;-67
2021/09/06 05:02:20;;;;;;;38.03;12.17;;;;;;;;;;772051;180;919425;-67
2021/09/06 05:04:46;;;;;;;47.00;13.53;;;;;;;;;;767565;180;920145;-67
2021/09/06 05:07:11;;;;;;;48.33;15.63;;;;;;;;;;772165;180;918851;-67
2021/09/06 05:09:37;;;;;;;42.73;13.97;;;;;;;;;;760204;180;1635142;-69
2021/09/06 05:12:03;;;;;;;36.17;14.17;;;;;;;;;;769927;180;1023143;-68
2021/09/06 05:14:29;;;;;;;26.30;14.17;;;;;;;;;;773331;180;918991;-68
2021/09/06 05:16:55;;;;;;;32.67;14.13;;;;;;;;;;768233;180;918940;-67
2021/09/06 05:19:21;;;;;;;39.00;15.60;;;;;;;;;;764753;180;919627;-68
2021/09/06 05:21:47;;;;;;;28.43;13.83;;;;;;;;;;769857;180;918682;-67
2021/09/06 05:24:13;;;;;;;26.73;13.77;;;;;;;;;;767162;180;918264;-68
2021/09/06 05:26:39;;;;;;;35.45;13.32;;;;;;;;;;768521;180;919297;-67
2021/09/06 05:29:04;;;;;;;21.00;12.93;;;;;;;;;;766677;180;918441;-67
2021/09/06 05:31:30;;;;;;;24.87;12.40;;;;;;;;;;764993;180;918476;-68
2021/09/06 05:33:56;;;;;;;24.27;12.37;;;;;;;;;;768104;180;920662;-67
2021/09/06 05:36:22;;;;;;;31.57;14.13;;;;;;;;;;766102;180;919093;-67
2021/09/06 05:38:48;;;;;;;30.70;14.20;;;;;;;;;;770089;180;918082;-66
2021/09/06 05:41:17;;;;;;;28.47;14.20;;;;;;;;;;765268;180;918628;-67
2021/09/06 05:43:40;;;;;;;27.75;13.18;;;;;;;;;;767295;180;922178;-67
2021/09/06 05:46:05;;;;;;;24.73;12.17;;;;;;;;;;770760;180;917259;-68
2021/09/06 05:48:31;;;;;;;27.03;13.10;;;;;;;;;;771647;179;916454;-67
2021/09/06 05:50:57;;;;;;;29.85;12.52;;;;;;;;;;771142;180;916085;-67
2021/09/06 05:53:23;;;;;;;22.17;12.17;;;;;;;;;;768325;180;915287;-69
2021/09/06 05:55:49;;;;;;;18.13;10.77;;;;;;;;;;769181;181;915666;-68
2021/09/06 05:58:15;;;;;;;22.77;13.17;;;;;;;;;;767048;180;1015917;-68
2021/09/06 06:00:40;;;;;;;17.83;10.00;;;;;;;;;;762859;180;927224;-67
2021/09/06 06:03:06;;;;;;;25.60;11.52;;;;;;;;;;773559;180;919048;-68
2021/09/06 06:05:32;;;;;;;25.93;13.60;;;;;;;;;;771049;180;917960;-69
2021/09/06 06:07:58;;;;;;;24.70;12.90;;;;;;;;;;770533;180;921555;-68
2021/09/06 06:10:24;;;;;;;23.10;15.93;;;;;;;;;;771680;180;918349;-68
2021/09/06 06:12:50;;;;;;;26.37;11.50;;;;;;;;;;761305;180;919074;-68
2021/09/06 06:15:16;;;;;;;18.93;10.83;;;;;;;;;;764150;180;918655;-69
2021/09/06 06:17:43;;;;;;;23.63;11.77;;;;;;;;;;764495;180;919966;-69
2021/09/06 06:20:09;;;;;;;21.70;14.53;;;;;;;;;;765003;181;919406;-69
2021/09/06 06:22:34;;;;;;;30.10;12.83;;;;;;;;;;767076;180;918560;-68
2021/09/06 06:25:00;;;;;;;20.00;12.45;;;;;;;;;;761157;180;918806;-68
2021/09/06 06:27:26;;;;;;;21.70;13.20;;;;;;;;;;770394;181;919252;-68
2021/09/06 06:29:52;;;;;;;23.42;12.95;;;;;;;;;;768588;180;918109;-68
2021/09/06 06:32:18;;;;;;;19.03;12.53;;;;;;;;;;769844;180;919154;-68
2021/09/06 06:34:44;;;;;;;17.70;11.17;;;;;;;;;;770575;180;918862;-68
2021/09/06 06:37:09;;;;;;;19.07;11.73;;;;;;;;;;767356;180;918257;-69
2021/09/06 06:39:35;;;;;;;17.10;11.00;;;;;;;;;;760750;180;920356;-68
2021/09/06 06:42:01;;;;;;;19.62;12.00;;;;;;;;;;769860;181;918094;-69
2021/09/06 06:44:27;;;;;;;18.47;12.80;;;;;;;;;;769059;180;919148;-68
2021/09/06 06:46:53;;;;;;;16.90;11.77;;;;;;;;;;764624;180;926483;-68
2021/09/06 06:49:19;;;;;;;17.00;11.43;;;;;;;;;;768321;180;919123;-68
2021/09/06 06:51:45;;;;;;;17.10;10.53;;;;;;;;;;768494;182;915258;-70
2021/09/06 06:54:10;;;;;;;15.05;10.68;;;;;;;;;;766594;180;918508;-69
2021/09/06 06:56:36;;;;;;;18.67;9.70;;;;;;;;;;767263;180;918390;-69
2021/09/06 06:59:02;;;;;;;16.23;9.70;;;;;;;;;;771046;178;919016;-68
2021/09/06 07:01:28;;;;;;;13.80;8.53;;;;;;;;;;767256;180;918791;-70
2021/09/06 07:03:54;;;;;;;14.73;11.40;;;;;;;;;;769010;180;917552;-70
2021/09/06 07:06:20;;;;;;;13.52;7.53;;;;;;;;;;773178;180;1019752;-69
2021/09/06 07:08:45;;;;;;;12.83;7.77;;;;;;;;;;765821;181;918825;-69
2021/09/06 07:11:11;;;;;;;11.17;6.83;;;;;;;;;;772866;179;919528;-70
2021/09/06 07:13:37;;;;;;;11.37;7.80;;;;;;;;;;768690;180;918920;-71
2021/09/06 07:16:03;;;;;;;11.50;6.60;;;;;;;;;;768568;181;917633;-69
2021/09/06 07:18:29;;;;;;;11.80;6.60;;;;;;;;;;770369;180;918674;-69
2021/09/06 07:20:55;;;;;;;8.73;6.60;;;;;;;;;;762761;181;918798;-70
2021/09/06 07:23:21;;;;;;;12.00;6.57;;;;;;;;;;767949;180;918733;-70
2021/09/06 07:25:47;;;;;;;9.83;6.20;;;;;;;;;;766072;180;919602;-70
2021/09/06 07:28:13;;;;;;;8.40;6.27;;;;;;;;;;767967;180;918759;-71
2021/09/06 07:30:38;;;;;;;10.03;6.67;;;;;;;;;;770171;180;918152;-71
2021/09/06 07:33:06;;;;;;;11.67;6.97;;;;;;;;;;770969;180;919132;-70
2021/09/06 07:35:30;;;;;;;9.87;6.50;;;;;;;;;;768094;180;919688;-70
2021/09/06 07:37:56;;;;;;;9.00;7.00;;;;;;;;;;764987;180;918775;-70
2021/09/06 07:40:22;;;;;;;10.50;6.83;;;;;;;;;;763793;182;919050;-71
2021/09/06 07:42:48;;;;;;;11.00;6.43;;;;;;;;;;767382;180;1055845;-72
2021/09/06 07:45:13;;;;;;;11.02;6.85;;;;;;;;;;761768;180;919377;-72
2021/09/06 07:47:39;;;;;;;10.03;6.10;;;;;;;;;;767523;180;918413;-73
2021/09/06 07:50:05;;;;;;;9.20;7.00;;;;;;;;;;765680;180;919600;-70
2021/09/06 07:52:31;;;;;;;10.70;6.20;;;;;;;;;;766964;180;919095;-72
2021/09/06 07:54:57;;;;;;;30.73;9.30;;;;;;;;;;770704;180;918447;-72
2021/09/06 07:57:23;;;;;;;15.43;8.20;;;;;;;;;;764963;180;918856;-73
2021/09/06 07:59:49;;;;;;;11.63;6.70;;;;;;;;;;767457;180;944530;-72
2021/09/06 08:02:15;;;;;;;14.70;7.30;;;;;;;;;;769320;180;918341;-73
2021/09/06 08:04:41;;;;;;;11.87;7.77;;;;;;;;;;750823;183;971554;-73
2021/09/06 08:07:07;;;;;;;11.07;7.30;;;;;;;;;;769554;180;919232;-72
2021/09/06 08:09:33;;;;;;;9.53;6.00;;;;;;;;;;767895;180;919299;-71
2021/09/06 08:11:59;;;;;;;10.33;6.03;;;;;;;;;;773168;180;917773;-73
2021/09/06 08:14:26;;;;;;;9.50;5.30;;;;;;;;;;769296;180;919296;-71
2021/09/06 08:16:50;;;;;;;12.60;6.37;;;;;;;;;;764883;180;918340;-71
2021/09/06 08:19:16;;;;;;;8.53;5.37;;;;;;;;;;772373;180;917315;-72
2021/09/06 08:21:42;;;;;;;8.83;5.33;;;;;;;;;;765540;180;1020964;-72
2021/09/06 08:24:08;;;;;;;13.88;5.90;;;;;;;;;;770286;180;920075;-73
2021/09/06 08:26:34;;;;;;;9.00;5.60;;;;;;;;;;772110;180;918030;-73
2021/09/06 08:28:59;;;;;;;7.03;4.70;;;;;;;;;;764098;181;921026;-73
2021/09/06 08:31:26;;;;;;;10.00;5.60;;;;;;;;;;766564;180;920298;-73
2021/09/06 08:33:51;;;;;;;9.27;5.43;;;;;;;;;;768550;180;920440;-74
2021/09/06 08:36:17;;;;;;;12.40;5.97;;;;;;;;;;765449;182;918341;-74
2021/09/06 08:38:43;;;;;;;8.40;5.10;;;;;;;;;;766728;180;919098;-74
2021/09/06 08:41:09;;;;;;;14.23;5.60;;;;;;;;;;767204;180;920944;-74
2021/09/06 08:43:34;;;;;;;13.37;5.70;;;;;;;;;;773349;180;920694;-73
2021/09/06 08:46:00;;;;;;;6.53;4.72;;;;;;;;;;768841;180;919104;-72
2021/09/06 08:48:26;;;;;;;11.10;6.20;;;;;;;;;;766221;180;917888;-73
2021/09/06 08:50:52;;;;;;;8.53;5.47;;;;;;;;;;770753;180;927781;-73
2021/09/06 08:53:18;;;;;;;8.90;4.90;;;;;;;;;;765076;180;919560;-73
2021/09/06 08:55:44;;;;;;;9.53;5.10;;;;;;;;;;763020;180;920728;-73
2021/09/06 08:58:09;;;;;;;7.80;5.47;;;;;;;;;;773443;180;918971;-74
2021/09/06 09:00:35;;;;;;;13.13;6.43;;;;;;;;;;765232;180;918209;-73
2021/09/06 09:03:01;;;;;;;8.77;5.97;;;;;;;;;;766754;180;914103;-74
2021/09/06 09:05:27;;;;;;;9.45;4.65;;;;;;;;;;769891;180;914371;-73
2021/09/06 09:07:55;;;;;;;8.90;4.73;;;;;;;;;;775124;180;913250;-72
2021/09/06 09:10:25;;;;;;;7.80;4.90;;;;;;;;;;767685;180;916141;-71
2021/09/06 09:12:50;;;;;;;9.93;4.53;;;;;;;;;;761289;181;914175;-75
2021/09/06 09:15:16;;;;;;;8.17;4.83;;;;;;;;;;769073;180;914391;-73
2021/09/06 09:17:57;;;;;;;7.63;5.20;;;;;;;;;;764902;180;919306;-74
2021/09/06 09:20:23;;;;;;;7.77;4.70;;;;;;;;;;765068;180;919110;-69
2021/09/06 09:22:49;;;;;;;6.33;4.27;;;;;;;;;;761226;182;919777;-72
2021/09/06 09:25:15;;;;;;;12.10;4.93;;;;;;;;;;768124;180;913053;-72
2021/09/06 09:27:41;;;;;;;8.47;4.10;;;;;;;;;;766809;183;911717;-72
2021/09/06 09:30:11;;;;;;;8.73;3.87;;;;;;;;;;771891;180;919378;-69
2021/09/06 09:32:38;;;;;;;7.00;3.87;;;;;;;;;;767529;180;919641;-72
2021/09/06 09:35:04;;;;;;;6.13;3.80;;;;;;;;;;771214;180;909439;-72
2021/09/06 09:37:29;;;;;;;7.87;4.10;;;;;;;;;;762483;180;909645;-70
2021/09/06 09:39:56;;;;;;;7.53;3.60;;;;;;;;;;765583;181;909084;-70
2021/09/06 09:42:22;;;;;;;6.57;3.50;;;;;;;;;;766385;180;919904;-70
2021/09/06 09:44:48;;;;;;;7.20;3.93;;;;;;;;;;765793;181;916237;-72
2021/09/06 09:47:14;;;;;;;5.53;3.90;;;;;;;;;;770972;180;913486;-71
2021/09/06 09:49:42;;;;;;;5.47;2.97;;;;;;;;;;770908;180;914123;-72
2021/09/06 09:52:06;;;;;;;6.77;3.37;;;;;;;;;;772400;180;905534;-74
2021/09/06 09:54:32;;;;;;;11.50;3.00;;;;;;;;;;770440;179;916319;-72
2021/09/06 09:56:57;;;;;;;4.80;2.60;;;;;;;;;;767390;180;915580;-73
2021/09/06 09:59:23;;;;;;;7.97;3.40;;;;;;;;;;769278;180;912222;-73
2021/09/06 10:01:49;;;;;;;5.67;3.63;;;;;;;;;;766153;180;916017;-71
2021/09/06 10:04:15;;;;;;;5.53;2.87;;;;;;;;;;763837;180;1282750;-71
2021/09/06 10:06:41;;;;;;;5.05;2.97;;;;;;;;;;768554;180;919316;-71
2021/09/06 10:09:07;;;;;;;6.07;2.20;;;;;;;;;;769969;181;920782;-70
2021/09/06 10:11:33;;;;;;;6.00;3.30;;;;;;;;;;770301;180;919226;-70
2021/09/06 10:13:59;;;;;;;6.47;3.20;;;;;;;;;;764697;180;914789;-72
2021/09/06 10:16:28;;;;;;;4.90;3.70;;;;;;;;;;769519;180;919789;-71
2021/09/06 10:18:54;;;;;;;7.27;3.10;;;;;;;;;;761432;180;920962;-71
2021/09/06 10:21:20;;;;;;;4.60;2.90;;;;;;;;;;763881;180;918430;-71
2021/09/06 10:23:46;;;;;;;4.20;2.53;;;;;;;;;;770917;180;919132;-70
2021/09/06 10:26:12;;;;;;;6.30;3.30;;;;;;;;;;768476;181;918841;-69
2021/09/06 10:28:38;;;;;;;4.60;3.50;;;;;;;;;;767154;180;918251;-72
2021/09/06 10:31:04;;;;;;;6.13;2.97;;;;;;;;;;761030;181;1018400;-71
2021/09/06 10:33:29;;;;;;;3.90;2.63;;;;;;;;;;761379;182;918988;-71
2021/09/06 10:36:01;;;;;;;4.13;2.67;;;;;;;;;;771347;180;919022;-69
2021/09/06 10:38:27;;;;;;;5.10;2.80;;;;;;;;;;765366;181;919040;-71
2021/09/06 10:40:53;;;;;;;5.37;2.70;;;;;;;;;;771943;180;939118;-70
2021/09/06 10:43:19;;;;;;;9.07;2.90;;;;;;;;;;772129;180;919489;-72
2021/09/06 10:45:45;;;;;;;4.80;2.63;;;;;;;;;;768180;179;919198;-70
2021/09/06 10:48:11;;;;;;;6.10;2.60;;;;;;;;;;769038;179;918400;-71
2021/09/06 10:50:37;;;;;;;5.10;2.23;;;;;;;;;;760996;184;918222;-70
2021/09/06 10:53:03;;;;;;;4.73;2.53;;;;;;;;;;771017;180;921646;-70
2021/09/06 10:55:28;;;;;;;5.03;2.40;;;;;;;;;;767758;180;918744;-71
2021/09/06 10:57:54;;;;;;;7.20;2.90;;;;;;;;;;774869;180;918677;-70
2021/09/06 11:00:20;;;;;;;5.37;2.60;;;;;;;;;;768166;181;918704;-70
2021/09/06 11:02:49;;;;;;;9.87;2.90;;;;;;;;;;767708;180;918747;-70
2021/09/06 11:05:19;;;;;;;4.70;3.10;;;;;;;;;;767975;181;1021477;-70
2021/09/06 11:07:45;;;;;;;4.47;2.40;;;;;;;;;;769456;182;919396;-74
2021/09/06 11:10:10;;;;;;;3.70;2.20;;;;;;;;;;763248;180;990021;-71
2021/09/06 11:12:36;;;;;;;8.30;2.50;;;;;;;;;;764967;180;919819;-70
2021/09/06 11:15:02;;;;;;;3.95;2.25;;;;;;;;;;772678;180;815507;-70
2021/09/06 11:17:30;;;;;;;5.57;2.70;;;;;;;;;;766719;180;918810;-72
2021/09/06 11:19:56;;;;;;;5.03;3.30;;;;;;;;;;763408;180;918768;-71
2021/09/06 11:22:22;;;;;;;5.87;2.40;;;;;;;;;;768223;180;919329;-70
2021/09/06 11:24:46;;;;;;;4.93;2.93;;;;;;;;;;769556;180;917877;-71
2021/09/06 11:27:17;;;;;;;9.20;2.45;;;;;;;;;;765755;180;919009;-71
2021/09/06 11:29:43;;;;;;;5.50;3.17;;;;;;;;;;764033;179;918655;-68
2021/09/06 11:32:09;;;;;;;4.97;2.30;;;;;;;;;;771624;181;919139;-71
2021/09/06 11:34:35;;;;;;;4.17;2.37;;;;;;;;;;768326;180;917963;-70
2021/09/06 11:37:01;;;;;;;3.73;2.20;;;;;;;;;;768971;180;927716;-70
2021/09/06 11:39:30;;;;;;;9.43;2.50;;;;;;;;;;773628;180;918900;-69
2021/09/06 11:41:57;;;;;;;5.87;2.60;;;;;;;;;;768836;180;919718;-70
2021/09/06 11:44:21;;;;;;;4.77;2.70;;;;;;;;;;766783;180;918726;-70
2021/09/06 11:46:47;;;;;;;3.77;2.53;;;;;;;;;;768101;180;918876;-70
2021/09/06 11:49:13;;;;;;;5.32;3.20;;;;;;;;;;765509;181;920080;-70
2021/09/06 11:51:39;;;;;;;5.13;3.13;;;;;;;;;;768048;180;918767;-71
2021/09/06 11:54:04;;;;;;;4.00;2.17;;;;;;;;;;768687;180;936635;-73
2021/09/06 11:56:30;;;;;;;3.40;2.30;;;;;;;;;;773319;180;918052;-69
2021/09/06 11:58:56;;;;;;;3.70;2.30;;;;;;;;;;769743;180;918061;-69
2021/09/06 12:01:22;;;;;;;5.70;2.47;;;;;;;;;;768801;180;917909;-70
2021/09/06 12:03:48;;;;;;;7.40;3.00;;;;;;;;;;770470;180;919025;-69
2021/09/06 12:06:14;;;;;;;4.57;2.50;;;;;;;;;;766412;180;919227;-71
2021/09/06 12:08:54;;;;;;;5.97;3.00;;;;;;;;;;767130;180;918697;-69
2021/09/06 12:11:20;;;;;;;7.70;2.33;;;;;;;;;;769837;180;918719;-72
2021/09/06 12:13:46;;;;;;;6.03;2.40;;;;;;;;;;771361;180;919461;-71
2021/09/06 12:16:12;;;;;;;3.97;2.30;;;;;;;;;;763072;181;919390;-73
2021/09/06 12:18:38;;;;;;;4.70;3.43;;;;;;;;;;769887;180;918489;-72
2021/09/06 12:21:05;;;;;;;3.67;2.10;;;;;;;;;;764866;180;918492;-71
2021/09/06 12:23:32;;;;;;;5.07;2.70;;;;;;;;;;751684;185;940700;-71
2021/09/06 12:25:58;;;;;;;4.10;2.50;;;;;;;;;;764164;180;918347;-72
2021/09/06 12:28:24;;;;;;;4.33;2.40;;;;;;;;;;768338;180;927702;-71
2021/09/06 12:30:56;;;;;;;3.53;2.30;;;;;;;;;;768067;180;919410;-71
2021/09/06 12:33:21;;;;;;;10.10;2.67;;;;;;;;;;769670;181;919066;-72
2021/09/06 12:35:47;;;;;;;4.50;2.67;;;;;;;;;;766867;180;918184;-71
2021/09/06 12:38:13;;;;;;;4.90;2.60;;;;;;;;;;767741;180;919113;-71
2021/09/06 12:40:39;;;;;;;4.27;2.80;;;;;;;;;;776044;180;919174;-70
2021/09/06 12:43:05;;;;;;;3.80;2.03;;;;;;;;;;771104;180;918790;-72
2021/09/06 12:45:31;;;;;;;5.57;2.67;;;;;;;;;;765866;180;918784;-73
2021/09/06 12:47:57;;;;;;;5.57;3.23;;;;;;;;;;768107;180;1122945;-70
2021/09/06 12:50:22;;;;;;;3.23;2.03;;;;;;;;;;765439;180;918941;-72
2021/09/06 12:52:48;;;;;;;5.07;2.70;;;;;;;;;;766922;180;919320;-71
2021/09/06 12:55:14;;;;;;;4.23;2.37;;;;;;;;;;772911;180;919562;-71
2021/09/06 12:57:40;;;;;;;6.00;2.20;;;;;;;;;;766099;180;919224;-71
2021/09/06 13:00:06;;;;;;;6.30;2.70;;;;;;;;;;771226;180;918526;-70
2021/09/06 13:02:32;;;;;;;7.70;2.53;;;;;;;;;;768559;180;918673;-70
2021/09/06 13:04:58;;;;;;;4.37;2.60;;;;;;;;;;775417;180;919309;-71
2021/09/06 13:07:24;;;;;;;4.50;2.67;;;;;;;;;;767640;179;918869;-72
2021/09/06 13:09:50;;;;;;;4.63;2.70;;;;;;;;;;765589;180;919795;-73
2021/09/06 13:12:15;;;;;;;5.15;2.35;;;;;;;;;;764873;180;919913;-70
2021/09/06 13:14:41;;;;;;;5.80;2.40;;;;;;;;;;767885;179;919934;-73
2021/09/06 13:17:07;;;;;;;4.30;2.27;;;;;;;;;;765739;180;918822;-72
2021/09/06 13:19:33;;;;;;;6.83;2.63;;;;;;;;;;774009;180;919178;-72
2021/09/06 13:21:59;;;;;;;4.10;2.60;;;;;;;;;;768360;180;917832;-73
2021/09/06 13:24:25;;;;;;;4.60;2.35;;;;;;;;;;771431;180;907873;-70
2021/09/06 13:26:51;;;;;;;4.83;2.63;;;;;;;;;;763179;180;918403;-73
2021/09/06 13:29:17;;;;;;;8.03;2.87;;;;;;;;;;765591;182;918079;-72
2021/09/06 13:31:44;;;;;;;7.53;2.60;;;;;;;;;;768646;180;918632;-70
2021/09/06 13:34:09;;;;;;;4.47;2.80;;;;;;;;;;768473;180;918502;-71
2021/09/06 13:36:34;;;;;;;5.60;2.80;;;;;;;;;;769379;180;918784;-70
2021/09/06 13:39:00;;;;;;;5.53;2.63;;;;;;;;;;759338;180;1438736;-71
2021/09/06 13:41:26;;;;;;;5.90;3.20;;;;;;;;;;764576;181;918602;-73
2021/09/06 13:43:52;;;;;;;6.70;3.25;;;;;;;;;;772249;180;919274;-73
2021/09/06 13:46:18;;;;;;;5.20;2.60;;;;;;;;;;768475;180;919856;-71
2021/09/06 13:48:44;;;;;;;4.00;2.70;;;;;;;;;;767928;181;919120;-73
2021/09/06 13:51:10;;;;;;;6.68;2.60;;;;;;;;;;767969;180;918820;-70
2021/09/06 13:53:38;;;;;;;5.73;2.30;;;;;;;;;;761930;183;918483;-69
2021/09/06 13:56:01;;;;;;;3.40;2.20;;;;;;;;;;766483;180;919687;-74
2021/09/06 13:58:27;;;;;;;4.07;2.87;;;;;;;;;;765449;180;919602;-72
2021/09/06 14:00:53;;;;;;;6.87;3.07;;;;;;;;;;770535;180;919426;-71
2021/09/06 14:03:19;;;;;;;4.93;3.00;;;;;;;;;;763922;180;918919;-73
2021/09/06 14:05:45;;;;;;;3.87;2.30;;;;;;;;;;769223;180;918122;-72
2021/09/06 14:08:10;;;;;;;4.57;2.47;;;;;;;;;;769882;180;921035;-73
2021/09/06 14:10:36;;;;;;;3.80;3.03;;;;;;;;;;771431;180;918638;-72
2021/09/06 14:13:02;;;;;;;4.20;2.53;;;;;;;;;;765739;180;1020897;-71
2021/09/06 14:15:28;;;;;;;4.87;2.87;;;;;;;;;;770033;180;918174;-72